createdAt,value
2023-05-09T00:02:07.901Z,13.77
2023-05-09T00:04:35.277Z,14.23
2023-05-09T00:07:01.891Z,12.95
2023-05-09T00:09:28.401Z,12.13
2023-05-09T00:11:54.865Z,12.90
2023-05-09T00:14:21.838Z,13.20
2023-05-09T00:16:48.390Z,13.63
2023-05-09T00:19:14.928Z,14.18
2023-05-09T00:21:41.445Z,12.85
2023-05-09T00:24:07.999Z,12.43
2023-05-09T00:26:34.469Z,13.77
2023-05-09T00:29:00.987Z,13.07
2023-05-09T00:31:27.992Z,14.13
2023-05-09T00:33:54.631Z,13.25
2023-05-09T00:36:21.331Z,13.17
2023-05-09T00:38:47.827Z,15.68
2023-05-09T00:41:14.576Z,13.55
2023-05-09T00:43:41.098Z,13.73
2023-05-09T00:46:07.812Z,12.38
2023-05-09T00:48:35.564Z,13.20
2023-05-09T00:51:02.327Z,13.00
2023-05-09T00:53:28.868Z,12.57
2023-05-09T00:55:56.703Z,13.40
2023-05-09T00:58:23.842Z,14.95
2023-05-09T01:00:50.634Z,13.50
2023-05-09T01:03:17.835Z,13.18
2023-05-09T01:05:58.442Z,15.07
2023-05-09T01:08:45.392Z,14.50
2023-05-09T01:11:21.187Z,14.05
2023-05-09T01:14:23.086Z,14.17
2023-05-09T01:17:00.770Z,15.45
2023-05-09T01:19:30.460Z,14.98
2023-05-09T01:21:59.448Z,15.20
2023-05-09T01:25:05.201Z,15.95
2023-05-09T01:27:48.487Z,14.70
2023-05-09T01:30:16.853Z,14.55
2023-05-09T01:32:43.935Z,16.00
2023-05-09T01:35:14.510Z,16.02
2023-05-09T01:37:43.342Z,15.38
2023-05-09T01:40:21.721Z,14.77
2023-05-09T01:42:56.900Z,14.93
2023-05-09T01:45:24.892Z,14.65
2023-05-09T01:47:52.059Z,15.02
2023-05-09T01:50:20.081Z,16.20
2023-05-09T01:52:49.329Z,16.07
2023-05-09T01:55:17.541Z,15.95
2023-05-09T01:57:45.357Z,15.40
2023-05-09T02:00:13.728Z,14.77
2023-05-09T02:02:41.553Z,16.33
2023-05-09T02:05:10.243Z,15.13
2023-05-09T02:07:37.185Z,16.30
2023-05-09T02:10:05.016Z,14.98
2023-05-09T02:12:31.492Z,15.98
2023-05-09T02:14:58.041Z,14.70
2023-05-09T02:17:24.715Z,15.10
2023-05-09T02:19:51.224Z,15.35
2023-05-09T02:22:17.994Z,15.95
2023-05-09T02:24:47.250Z,15.88
2023-05-09T02:27:15.401Z,14.10
2023-05-09T02:29:46.747Z,15.37
2023-05-09T02:32:23.135Z,14.90
2023-05-09T02:34:52.237Z,14.73
2023-05-09T02:37:19.114Z,13.43
2023-05-09T02:39:45.996Z,13.60
2023-05-09T02:42:15.925Z,13.97
2023-05-09T02:44:42.416Z,12.82
2023-05-09T02:47:09.141Z,13.52
2023-05-09T02:49:35.596Z,13.25
2023-05-09T02:52:02.080Z,14.00
2023-05-09T02:54:28.902Z,14.13
2023-05-09T02:56:55.409Z,14.32
2023-05-09T02:59:21.900Z,14.30
2023-05-09T03:01:48.463Z,14.75
2023-05-09T03:04:15.040Z,13.38
2023-05-09T03:06:41.831Z,13.73
2023-05-09T03:09:08.310Z,13.98
2023-05-09T03:11:36.790Z,14.25
2023-05-09T03:14:04.063Z,14.13
2023-05-09T03:16:30.984Z,13.98
2023-05-09T03:18:57.541Z,12.87
2023-05-09T03:21:24.194Z,12.30
2023-05-09T03:23:50.682Z,12.18
2023-05-09T03:26:17.162Z,13.32
2023-05-09T03:28:43.749Z,11.77
2023-05-09T03:31:10.218Z,12.70
2023-05-09T03:33:36.869Z,14.20
2023-05-09T03:36:03.480Z,13.00
2023-05-09T03:38:30.033Z,13.13
2023-05-09T03:40:56.570Z,14.52
2023-05-09T03:43:23.039Z,14.33
2023-05-09T03:45:49.497Z,15.73
2023-05-09T03:48:16.204Z,16.10
2023-05-09T03:50:42.708Z,16.02
2023-05-09T03:53:09.914Z,13.68
2023-05-09T03:55:36.382Z,14.43
2023-05-09T03:58:03.567Z,15.27
2023-05-09T04:00:30.097Z,15.48
2023-05-09T04:02:56.805Z,15.15
2023-05-09T04:05:23.448Z,15.80
2023-05-09T04:07:49.898Z,15.53
2023-05-09T04:10:16.358Z,15.75
2023-05-09T04:12:42.812Z,15.10
2023-05-09T04:15:09.934Z,13.65
2023-05-09T04:17:36.559Z,14.40
2023-05-09T04:20:03.787Z,14.53
2023-05-09T04:22:30.273Z,14.27
2023-05-09T04:24:57.317Z,15.55
2023-05-09T04:27:23.820Z,15.07
2023-05-09T04:29:50.403Z,15.48
2023-05-09T04:32:17.597Z,14.10
2023-05-09T04:34:44.180Z,14.20
2023-05-09T04:37:11.120Z,13.10
2023-05-09T04:39:37.643Z,13.63
2023-05-09T04:42:04.357Z,13.70
2023-05-09T04:44:31.274Z,14.27
2023-05-09T04:46:58.155Z,14.00
2023-05-09T04:49:24.907Z,13.60
2023-05-09T04:51:51.727Z,13.93
2023-05-09T04:54:18.348Z,14.10
2023-05-09T04:56:44.881Z,14.67
2023-05-09T04:59:11.368Z,13.07
2023-05-09T05:01:37.903Z,12.68
2023-05-09T05:04:04.813Z,12.63
2023-05-09T05:06:32.041Z,12.32
2023-05-09T05:08:58.531Z,12.70
2023-05-09T05:11:25.082Z,12.35
2023-05-09T05:13:51.594Z,12.38
2023-05-09T05:16:18.128Z,12.02
2023-05-09T05:18:44.649Z,12.63
2023-05-09T05:21:11.159Z,12.07
2023-05-09T05:23:38.004Z,11.98
2023-05-09T05:26:04.546Z,11.23
2023-05-09T05:28:31.077Z,11.00
2023-05-09T05:30:57.608Z,11.07
2023-05-09T05:33:24.144Z,10.87
2023-05-09T05:35:51.630Z,10.85
2023-05-09T05:38:18.229Z,12.00
2023-05-09T05:40:44.706Z,10.88
2023-05-09T05:43:11.240Z,10.32
2023-05-09T05:45:37.818Z,10.07
2023-05-09T05:48:04.662Z,10.40
2023-05-09T05:50:31.172Z,10.50
2023-05-09T05:52:57.626Z,10.40
2023-05-09T05:55:24.094Z,10.18
2023-05-09T05:57:50.543Z,10.20
2023-05-09T06:00:17.362Z,10.30
2023-05-09T06:02:44.697Z,9.95
2023-05-09T06:05:11.977Z,10.10
2023-05-09T06:07:40.173Z,9.73
2023-05-09T06:10:08.055Z,9.97
2023-05-09T06:12:34.547Z,8.93
2023-05-09T06:15:01.008Z,8.88
2023-05-09T06:17:28.190Z,9.80
2023-05-09T06:19:54.729Z,9.57
2023-05-09T06:22:21.309Z,9.73
2023-05-09T06:24:48.557Z,9.90
2023-05-09T06:27:15.068Z,8.35
2023-05-09T06:29:41.594Z,10.10
2023-05-09T06:32:08.074Z,9.93
2023-05-09T06:34:34.680Z,9.90
2023-05-09T06:37:01.261Z,10.35
2023-05-09T06:39:27.823Z,9.80
2023-05-09T06:41:54.392Z,9.57
2023-05-09T06:44:20.930Z,10.07
2023-05-09T06:46:47.532Z,10.17
2023-05-09T06:49:14.203Z,10.45
2023-05-09T06:51:40.786Z,9.45
2023-05-09T06:54:07.478Z,9.75
2023-05-09T06:56:34.079Z,9.45
2023-05-09T06:59:00.619Z,9.90
2023-05-09T07:01:27.211Z,9.60
2023-05-09T07:03:53.755Z,9.70
2023-05-09T07:06:20.691Z,10.07
2023-05-09T07:08:47.238Z,10.15
2023-05-09T07:11:13.741Z,9.73
2023-05-09T07:13:40.256Z,9.80
2023-05-09T07:16:06.867Z,9.50
2023-05-09T07:18:33.384Z,9.98
2023-05-09T07:20:59.848Z,10.57
2023-05-09T07:23:27.104Z,10.17
2023-05-09T07:25:59.826Z,10.63
2023-05-09T07:28:26.432Z,10.85
2023-05-09T07:30:55.336Z,10.43
2023-05-09T07:33:21.972Z,10.05
2023-05-09T07:35:48.501Z,9.93
2023-05-09T07:38:15.056Z,10.20
2023-05-09T07:40:41.574Z,9.85
2023-05-09T07:43:08.107Z,9.70
2023-05-09T07:45:34.851Z,9.98
2023-05-09T07:48:01.574Z,9.77
2023-05-09T07:50:28.102Z,10.10
2023-05-09T07:52:55.650Z,10.30
2023-05-09T07:55:22.273Z,9.48
2023-05-09T07:57:48.768Z,10.30
2023-05-09T08:00:16.416Z,9.43
2023-05-09T08:02:43.124Z,10.38
2023-05-09T08:05:11.676Z,9.52
2023-05-09T08:07:38.385Z,9.43
2023-05-09T08:10:05.380Z,9.43
2023-05-09T08:12:32.313Z,9.13
2023-05-09T08:14:58.788Z,9.40
2023-05-09T08:17:25.454Z,9.75
2023-05-09T08:19:52.172Z,9.25
2023-05-09T08:22:19.580Z,8.82
2023-05-09T08:24:47.431Z,8.73
2023-05-09T08:27:15.482Z,8.93
2023-05-09T08:29:42.789Z,8.15
2023-05-09T08:32:09.941Z,8.27
2023-05-09T08:34:36.607Z,8.52
2023-05-09T08:37:04.391Z,8.60
2023-05-09T08:39:31.394Z,7.38
2023-05-09T08:42:02.347Z,8.05
2023-05-09T08:44:30.429Z,7.55
2023-05-09T08:47:01.404Z,7.57
2023-05-09T08:49:28.781Z,7.40
2023-05-09T08:51:56.474Z,6.65
2023-05-09T08:54:23.802Z,6.53
2023-05-09T08:56:51.057Z,6.68
2023-05-09T08:59:18.897Z,5.78
2023-05-09T09:01:46.003Z,6.00
2023-05-09T09:04:12.782Z,5.63
2023-05-09T09:06:40.526Z,6.22
2023-05-09T09:09:11.483Z,5.25
2023-05-09T09:11:40.396Z,6.03
2023-05-09T09:14:15.625Z,6.10
2023-05-09T09:16:44.401Z,5.68
2023-05-09T09:19:13.445Z,5.50
2023-05-09T09:21:45.596Z,5.80
2023-05-09T09:24:19.623Z,5.57
2023-05-09T09:26:48.388Z,5.67
2023-05-09T09:29:15.770Z,5.57
2023-05-09T09:31:46.606Z,5.22
2023-05-09T09:34:19.194Z,5.38
2023-05-09T09:36:46.992Z,5.63
2023-05-09T09:39:14.412Z,5.10
2023-05-09T09:41:41.223Z,5.00
2023-05-09T09:44:16.531Z,5.22
2023-05-09T09:46:51.246Z,4.80
2023-05-09T09:49:24.031Z,4.80
2023-05-09T09:51:59.591Z,4.67
2023-05-09T09:54:27.798Z,5.60
2023-05-09T09:56:55.286Z,5.00
2023-05-09T09:59:25.067Z,4.68
2023-05-09T10:02:08.232Z,4.28
2023-05-09T10:04:37.494Z,4.80
2023-05-09T10:07:06.241Z,4.63
2023-05-09T10:09:34.682Z,4.38
2023-05-09T10:12:06.458Z,4.43
2023-05-09T10:14:35.576Z,4.50
2023-05-09T10:17:04.395Z,4.87
2023-05-09T10:19:31.909Z,4.47
2023-05-09T10:22:02.733Z,4.90
2023-05-09T10:24:39.721Z,4.82
2023-05-09T10:27:10.643Z,4.95
2023-05-09T10:29:50.052Z,4.33
2023-05-09T10:32:23.574Z,4.28
2023-05-09T10:34:54.512Z,4.57
2023-05-09T10:37:22.002Z,4.65
2023-05-09T10:39:53.164Z,4.45
2023-05-09T10:42:20.261Z,4.87
2023-05-09T10:44:47.829Z,4.57
2023-05-09T10:47:15.500Z,4.47
2023-05-09T10:49:44.254Z,4.80
2023-05-09T10:52:10.969Z,4.85
2023-05-09T10:54:37.928Z,4.83
2023-05-09T10:57:06.395Z,5.18
2023-05-09T10:59:43.432Z,4.65
2023-05-09T11:02:15.662Z,4.88
2023-05-09T11:04:42.305Z,4.53
2023-05-09T11:07:26.340Z,4.87
2023-05-09T11:10:07.072Z,4.90
2023-05-09T11:12:33.533Z,4.88
2023-05-09T11:15:08.127Z,4.50
2023-05-09T11:17:38.732Z,4.35
2023-05-09T11:20:06.506Z,5.20
2023-05-09T11:22:43.824Z,4.50
2023-05-09T11:25:15.091Z,3.97
2023-05-09T11:27:52.152Z,3.92
2023-05-09T11:30:20.618Z,4.07
2023-05-09T11:32:51.332Z,3.93
2023-05-09T11:35:22.925Z,3.65
2023-05-09T11:37:52.409Z,4.55
2023-05-09T11:40:20.868Z,4.10
2023-05-09T11:42:57.695Z,4.60
2023-05-09T11:45:30.606Z,4.00
2023-05-09T11:47:57.708Z,4.18
2023-05-09T11:50:24.689Z,4.30
2023-05-09T11:52:51.306Z,4.63
2023-05-09T11:55:22.892Z,4.47
2023-05-09T11:57:51.731Z,4.43
2023-05-09T12:00:23.260Z,4.20
2023-05-09T12:02:51.265Z,3.70
2023-05-09T12:05:19.821Z,4.07
2023-05-09T12:07:47.606Z,3.75
2023-05-09T12:10:16.017Z,3.70
2023-05-09T12:12:45.479Z,3.83
2023-05-09T12:15:13.714Z,3.42
2023-05-09T12:17:41.785Z,3.97
2023-05-09T12:20:08.988Z,4.20
2023-05-09T12:22:37.508Z,4.80
2023-05-09T12:25:09.627Z,4.55
2023-05-09T12:27:37.784Z,4.38
2023-05-09T12:30:10.227Z,4.43
2023-05-09T12:32:40.680Z,3.80
2023-05-09T12:35:09.498Z,4.10
2023-05-09T12:37:36.473Z,4.15
2023-05-09T12:40:12.800Z,3.75
2023-05-09T12:42:43.176Z,3.70
2023-05-09T12:45:10.461Z,3.72
2023-05-09T12:47:39.168Z,3.87
2023-05-09T12:50:07.418Z,4.35
2023-05-09T12:52:36.691Z,4.80
2023-05-09T12:55:09.582Z,4.32
2023-05-09T12:57:36.096Z,4.45
2023-05-09T13:00:06.437Z,4.97
2023-05-09T13:02:38.482Z,4.10
2023-05-09T13:05:17.830Z,4.15
2023-05-09T13:07:45.958Z,4.22
2023-05-09T13:10:18.414Z,4.35
2023-05-09T13:12:48.105Z,4.57
2023-05-09T13:15:22.456Z,4.28
2023-05-09T13:17:51.701Z,4.20
2023-05-09T13:20:19.359Z,3.90
2023-05-09T13:22:46.632Z,4.25
2023-05-09T13:25:13.675Z,3.73
2023-05-09T13:27:40.239Z,4.32
2023-05-09T13:30:10.003Z,3.80
2023-05-09T13:32:36.724Z,3.83
2023-05-09T13:35:06.527Z,3.33
2023-05-09T13:37:33.519Z,3.00
2023-05-09T13:40:00.037Z,2.95
2023-05-09T13:42:27.519Z,3.03
2023-05-09T13:44:54.125Z,3.13
2023-05-09T13:47:21.100Z,2.75
2023-05-09T13:49:47.746Z,3.10
2023-05-09T13:52:16.114Z,3.20
2023-05-09T13:54:42.661Z,3.17
2023-05-09T13:57:09.487Z,2.97
2023-05-09T13:59:36.303Z,2.95
2023-05-09T14:02:03.356Z,3.30
2023-05-09T14:04:34.107Z,2.78
2023-05-09T14:07:01.396Z,2.70
2023-05-09T14:09:28.847Z,2.92
2023-05-09T14:11:56.690Z,3.20
2023-05-09T14:14:25.494Z,2.93
2023-05-09T14:16:52.140Z,3.30
2023-05-09T14:19:18.768Z,3.20
2023-05-09T14:21:48.856Z,3.42
2023-05-09T14:24:16.466Z,2.80
2023-05-09T14:26:43.802Z,2.70
2023-05-09T14:29:10.939Z,2.78
2023-05-09T14:31:37.602Z,2.65
2023-05-09T14:34:05.226Z,2.85
2023-05-09T14:36:32.462Z,2.70
2023-05-09T14:38:58.973Z,3.00
2023-05-09T14:41:25.505Z,2.53
2023-05-09T14:43:52.434Z,2.70
2023-05-09T14:46:19.136Z,2.47
2023-05-09T14:48:45.803Z,2.70
2023-05-09T14:51:12.319Z,2.30
2023-05-09T14:53:42.073Z,2.13
2023-05-09T14:56:11.120Z,2.35
2023-05-09T14:58:37.786Z,2.00
2023-05-09T15:01:04.508Z,2.28
2023-05-09T15:03:31.361Z,2.20
2023-05-09T15:05:58.701Z,2.50
2023-05-09T15:08:25.938Z,2.67
2023-05-09T15:10:52.870Z,2.42
2023-05-09T15:13:19.520Z,2.80
2023-05-09T15:15:46.141Z,2.30
2023-05-09T15:18:13.393Z,2.67
2023-05-09T15:20:39.959Z,2.25
2023-05-09T15:23:07.871Z,2.33
2023-05-09T15:25:34.705Z,2.60
2023-05-09T15:28:01.241Z,2.67
2023-05-09T15:30:28.180Z,2.20
2023-05-09T15:32:54.722Z,2.40
2023-05-09T15:35:21.392Z,2.22
2023-05-09T15:37:47.852Z,2.20
2023-05-09T15:40:14.687Z,2.20
2023-05-09T15:42:41.506Z,2.38
2023-05-09T15:45:08.531Z,2.10
2023-05-09T15:47:35.856Z,2.20
2023-05-09T15:50:02.389Z,2.53
2023-05-09T15:52:29.158Z,2.40
2023-05-09T15:54:56.009Z,2.55
2023-05-09T15:57:23.105Z,2.22
2023-05-09T15:59:49.630Z,2.30
2023-05-09T16:02:16.244Z,2.72
2023-05-09T16:04:43.937Z,2.20
2023-05-09T16:07:10.867Z,2.28
2023-05-09T16:09:37.907Z,2.25
2023-05-09T16:12:04.787Z,1.77
2023-05-09T16:14:31.390Z,1.00
2023-05-09T16:16:57.907Z,1.47
2023-05-09T16:19:24.520Z,1.02
2023-05-09T16:21:51.129Z,1.00
2023-05-09T16:24:17.657Z,1.00
2023-05-09T16:26:44.184Z,1.10
2023-05-09T16:29:11.244Z,1.23
2023-05-09T16:31:37.879Z,1.20
2023-05-09T16:34:04.489Z,1.30
2023-05-09T16:36:33.638Z,1.27
2023-05-09T16:39:00.229Z,1.42
2023-05-09T16:41:27.133Z,2.10
2023-05-09T16:43:53.804Z,1.80
2023-05-09T16:46:20.686Z,1.80
2023-05-09T16:48:47.370Z,2.40
2023-05-09T16:51:13.937Z,1.88
2023-05-09T16:53:41.222Z,2.30
2023-05-09T16:56:07.958Z,1.80
2023-05-09T16:58:36.576Z,2.25
2023-05-09T17:01:03.821Z,2.20
2023-05-09T17:03:31.099Z,2.25
2023-05-09T17:05:57.624Z,2.50
2023-05-09T17:08:24.192Z,2.53
2023-05-09T17:10:50.709Z,2.85
2023-05-09T17:13:17.413Z,2.78
2023-05-09T17:15:44.320Z,2.40
2023-05-09T17:18:12.264Z,3.00
2023-05-09T17:20:40.808Z,2.78
2023-05-09T17:23:07.384Z,2.83
2023-05-09T17:25:33.886Z,2.50
2023-05-09T17:28:00.395Z,3.00
2023-05-09T17:30:27.434Z,2.80
2023-05-09T17:32:54.056Z,2.92
2023-05-09T17:35:22.456Z,3.38
2023-05-09T17:37:48.959Z,2.78
2023-05-09T17:40:16.037Z,3.30
2023-05-09T17:42:43.017Z,3.00
2023-05-09T17:45:11.650Z,3.20
2023-05-09T17:47:39.041Z,3.47
2023-05-09T17:50:09.773Z,3.28
2023-05-09T17:52:37.209Z,3.50
2023-05-09T17:55:04.053Z,3.53
2023-05-09T17:57:30.880Z,3.90
2023-05-09T17:59:58.261Z,3.88
2023-05-09T18:02:25.309Z,3.72
2023-05-09T18:04:52.388Z,4.13
2023-05-09T18:07:19.017Z,3.67
2023-05-09T18:09:46.501Z,3.55
2023-05-09T18:12:13.004Z,3.58
2023-05-09T18:14:40.063Z,3.30
2023-05-09T18:17:09.456Z,3.83
2023-05-09T18:19:35.991Z,3.50
2023-05-09T18:22:03.238Z,3.35
2023-05-09T18:24:29.836Z,3.30
2023-05-09T18:26:57.118Z,3.53
2023-05-09T18:29:23.660Z,3.30
2023-05-09T18:31:50.586Z,3.30
2023-05-09T18:34:17.355Z,2.88
2023-05-09T18:36:43.860Z,3.28
2023-05-09T18:39:12.017Z,3.38
2023-05-09T18:41:38.495Z,3.28
2023-05-09T18:44:05.320Z,3.07
2023-05-09T18:46:33.697Z,2.85
2023-05-09T18:49:01.159Z,3.20
2023-05-09T18:51:27.680Z,3.13
2023-05-09T18:53:54.175Z,3.38
2023-05-09T18:56:22.219Z,3.33
2023-05-09T18:58:52.133Z,3.58
2023-05-09T19:01:19.149Z,3.88
2023-05-09T19:03:46.371Z,3.63
2023-05-09T19:06:14.937Z,3.63
2023-05-09T19:08:43.512Z,3.67
2023-05-09T19:11:11.685Z,3.30
2023-05-09T19:13:40.069Z,3.90
2023-05-09T19:16:08.176Z,3.95
2023-05-09T19:18:34.988Z,3.55
2023-05-09T19:21:01.696Z,4.17
2023-05-09T19:23:28.191Z,3.60
2023-05-09T19:25:55.336Z,3.92
2023-05-09T19:28:23.073Z,4.07
2023-05-09T19:30:52.928Z,3.95
2023-05-09T19:33:19.660Z,4.60
2023-05-09T19:35:46.223Z,3.20
2023-05-09T19:38:12.873Z,2.95
2023-05-09T19:40:40.202Z,3.00
2023-05-09T19:43:06.958Z,3.10
2023-05-09T19:45:33.638Z,2.70
2023-05-09T19:48:00.694Z,2.80
2023-05-09T19:50:27.396Z,2.30
2023-05-09T19:52:53.958Z,2.33
2023-05-09T19:55:20.611Z,2.00
2023-05-09T19:57:47.313Z,2.07
2023-05-09T20:00:14.643Z,2.25
2023-05-09T20:02:41.497Z,2.40
2023-05-09T20:05:08.682Z,2.10
2023-05-09T20:07:35.137Z,2.47
2023-05-09T20:10:01.684Z,2.03
2023-05-09T20:12:30.182Z,2.33
2023-05-09T20:14:57.099Z,2.70
2023-05-09T20:17:23.843Z,2.40
2023-05-09T20:19:50.917Z,2.40
2023-05-09T20:22:19.543Z,2.43
2023-05-09T20:24:47.530Z,2.38
2023-05-09T20:27:14.312Z,2.40
2023-05-09T20:29:42.269Z,2.50
2023-05-09T20:32:09.212Z,2.00
2023-05-09T20:34:36.108Z,2.30
2023-05-09T20:37:02.974Z,2.42
2023-05-09T20:39:29.764Z,2.60
2023-05-09T20:41:58.792Z,2.47
2023-05-09T20:44:30.746Z,2.40
2023-05-09T20:47:00.823Z,1.90
2023-05-09T20:49:30.731Z,2.17
2023-05-09T20:52:01.940Z,2.63
2023-05-09T20:54:29.097Z,2.67
2023-05-09T20:56:55.929Z,2.42
2023-05-09T20:59:27.297Z,2.57
2023-05-09T21:01:55.672Z,2.53
2023-05-09T21:04:26.911Z,2.80
2023-05-09T21:06:53.758Z,3.00
2023-05-09T21:09:20.414Z,3.20
2023-05-09T21:11:47.035Z,2.90
2023-05-09T21:14:13.618Z,3.30
2023-05-09T21:16:40.346Z,3.28
2023-05-09T21:19:09.233Z,3.47
2023-05-09T21:21:35.794Z,3.30
2023-05-09T21:24:04.326Z,3.50
2023-05-09T21:26:30.927Z,3.90
2023-05-09T21:28:57.555Z,4.65
2023-05-09T21:31:24.120Z,4.65
2023-05-09T21:33:50.923Z,4.30
2023-05-09T21:36:17.639Z,4.20
2023-05-09T21:38:44.150Z,4.70
2023-05-09T21:41:10.810Z,4.60
2023-05-09T21:43:37.722Z,5.05
2023-05-09T21:46:05.809Z,4.85
2023-05-09T21:48:32.735Z,4.83
2023-05-09T21:51:03.148Z,5.55
2023-05-09T21:53:29.743Z,5.30
2023-05-09T21:55:56.268Z,4.90
2023-05-09T21:58:22.726Z,5.40
2023-05-09T22:00:49.304Z,5.03
2023-05-09T22:03:15.864Z,5.38
2023-05-09T22:05:42.486Z,5.70
2023-05-09T22:08:09.154Z,5.18
2023-05-09T22:10:37.807Z,5.20
2023-05-09T22:13:04.557Z,6.13
2023-05-09T22:15:31.241Z,6.10
2023-05-09T22:17:58.009Z,5.60
2023-05-09T22:20:24.711Z,6.15
2023-05-09T22:22:51.332Z,5.90
2023-05-09T22:25:17.961Z,5.90
2023-05-09T22:27:44.495Z,6.32
2023-05-09T22:30:12.438Z,5.70
2023-05-09T22:32:39.434Z,6.70
2023-05-09T22:35:06.816Z,6.38
2023-05-09T22:37:33.302Z,5.80
2023-05-09T22:40:01.475Z,6.20
2023-05-09T22:42:29.370Z,6.15
2023-05-09T22:44:55.986Z,6.97
2023-05-09T22:47:22.520Z,6.85
2023-05-09T22:49:50.368Z,7.27
2023-05-09T22:52:17.138Z,6.72
2023-05-09T22:54:43.798Z,6.75
2023-05-09T22:57:10.690Z,7.57
2023-05-09T22:59:37.200Z,8.00
2023-05-09T23:02:04.751Z,6.50
2023-05-09T23:04:31.341Z,7.32
2023-05-09T23:06:57.820Z,7.22
2023-05-09T23:09:24.461Z,6.93
2023-05-09T23:11:51.581Z,7.32
2023-05-09T23:14:18.088Z,8.00
2023-05-09T23:16:44.582Z,7.32
2023-05-09T23:19:11.038Z,7.45
2023-05-09T23:21:37.658Z,7.72
2023-05-09T23:24:04.448Z,7.38
2023-05-09T23:26:30.923Z,7.23
2023-05-09T23:28:57.471Z,8.02
2023-05-09T23:31:24.109Z,7.05
2023-05-09T23:33:50.671Z,7.55
2023-05-09T23:36:17.302Z,7.78
2023-05-09T23:38:43.856Z,6.80
2023-05-09T23:41:10.462Z,7.05
2023-05-09T23:43:37.877Z,7.18
2023-05-09T23:46:04.524Z,7.65
2023-05-09T23:48:31.178Z,7.55
2023-05-09T23:50:57.700Z,7.87
2023-05-09T23:53:24.159Z,8.70
2023-05-09T23:55:50.850Z,7.60
2023-05-09T23:58:17.332Z,8.88
